Conejos, Valles Caldera, New Mexico Weather observations

Data are for 10 minute period ending at time listed.
 Day   Time   Solar   Ave.   Ave.  Ave.  Vector  Max.   Baro.   Total    
  of    of     Rad.   Air    Rel.  Wind   Wind   Wind  Press.  Precip.   
Year   Day            Temp.  Hum.  Speed  Dir.   Gust                    
2015   (MST)  Kw/m2    F      %     mph   deg.    mph    mb.     in.     
-------------------------------------------------------------------------
  31    5:30   0.00   29.1    99    0.4   163     2.4   99999.0    0.00 
  31    5:40   0.00   29.1    99    0.0     0     0.0   99999.0    0.01 
  31    5:50   0.00   29.0    99    0.0     0     0.0   99999.0    0.00 
  31    6:00   0.00   29.0    99    0.0     0     0.0   99999.0    0.00 
  31    6:10   0.00   29.0    99    0.0     0     0.0   99999.0    0.00 
  31    6:20   0.00   29.0    99    0.0     0     0.0   99999.0    0.00 
  31    6:30   0.00   29.0    99    0.0     0     0.0   99999.0    0.00 
  31    6:40   0.00   29.1    99    0.4   145     2.4   99999.0    0.00 
  31    6:50   0.00   29.1    99    0.2   129     1.8   99999.0    0.00 
  31    7:00   0.00   29.2    99    0.0     0     0.0   99999.0    0.00 
  31    7:10   0.00   29.2    99    0.0     0     0.0   99999.0    0.00 
  31    7:20   0.00   29.2    99    0.0     0     0.0   99999.0    0.00 
  31    7:30   0.00   29.2    99    0.6   124     2.4   99999.0    0.00 
  31    7:40   0.00   29.2    99    0.2   141     1.8   99999.0    0.00 
  31    7:50   0.00   29.3    99    0.7   150     2.4   99999.0    0.00 
  31    8:00   0.00   29.3    99    0.8   148     2.4   99999.0    0.00 
  31    8:10   0.01   29.4    99    1.2   151     3.0   99999.0    0.00 
  31    8:20   0.02   29.6    99    1.3   149     3.6   99999.0    0.01 
  31    8:30   0.02   30.0    99    1.2   150     4.2   99999.0    0.00 
  31    8:40   0.02   30.2    99    1.3   167     3.6   99999.0    0.00 
  31    8:50   0.02   30.2    98    1.3   152     3.0   99999.0    0.00 
  31    9:00   0.02   30.1    98    1.2   164     3.6   99999.0    0.00 
  31    9:10   0.03   30.3    98    1.8   152     4.8   99999.0    0.00 
  31    9:20   0.03   30.6    98    0.8   174     3.6   99999.0    0.00 
  31    9:30   0.03   30.6    98    0.0   158     1.2   99999.0    0.00 
  31    9:40   0.02   30.4    97    0.0     0     0.0   99999.0    0.00 
  31    9:50   0.02   30.2    97    0.0   162     1.2   99999.0    0.00 
  31   10:00   0.01   29.9    97    0.0     0     0.0   99999.0    0.00 
  31   10:10   0.01   29.6    97    1.1   172     4.2   99999.0    0.00 
  31   10:20   0.02   29.6    98    0.0     0     0.0   99999.0    0.00 
  31   10:30   0.02   29.8    98    0.0     0     0.0   99999.0    0.00 
  31   10:40   0.02   30.2    98    0.0     0     0.0   99999.0    0.00 
  31   10:50   0.03   30.4    97    0.0     0     0.0   99999.0    0.00 
  31   11:00   0.04   30.5    97    0.0   238     1.2   99999.0    0.00 
  31   11:10   0.05   30.8    96    0.9     9     3.0   99999.0    0.00 
  31   11:20   0.05   30.7    95    1.3   247     3.6   99999.0    0.00 
  31   11:30   0.05   31.2    95    1.2   270     3.0   99999.0    0.00 
  31   11:40   0.04   31.1    94    1.7   162     4.2   99999.0    0.00 
  31   11:50   0.03   31.1    95    1.6   149     4.2   99999.0    0.00 
  31   12:00   0.04   31.1    95    0.9   149     2.4   99999.0    0.00 
  31   12:10   0.04   31.2    96    1.3   184     3.6   99999.0    0.00 
  31   12:20   0.04   30.9    95    1.8   146     4.2   99999.0    0.00 
  31   12:30   0.05   31.1    95    1.8   169     3.6   99999.0    0.00 
  31   12:40   0.06   31.4    95    1.3   344     3.0   99999.0    0.00 
  31   12:50   0.09   31.2    94    1.9   323     4.8   99999.0    0.00 
  31   13:00   0.09   31.4    94    1.3   212     3.0   99999.0    0.00 
  31   13:10   0.09   31.2    93    1.8   325     4.2   99999.0    0.00 
  31   13:20   0.05   30.9    94    1.6   343     3.6   99999.0    0.00 
  31   13:30   0.04   30.5    95    1.5   268     4.8   99999.0    0.00 
  31   13:40   0.04   30.5    95    1.4   275     4.2   99999.0    0.00 
  31   13:50   0.04   30.5    95    1.2     4     3.0   99999.0    0.00 
  31   14:00   0.04   30.0    96    1.5   333     3.0   99999.0    0.00 
  31   14:10   0.04   29.6    96    1.7   302     3.6   99999.0    0.00 
  31   14:20   0.05   29.5    97    1.6   329     3.6   99999.0    0.00 
  31   14:30   0.07   29.4    97    2.1   334     4.2   99999.0    0.00 
  31   14:40   0.09   29.8    97    2.2   311     3.6   99999.0    0.00 
  31   14:50   0.08   30.5    97    1.9   318     3.0   99999.0    0.00 
  31   15:00   0.08   30.9    97    1.7   336     3.6   99999.0    0.00 
  31   15:10   0.07   31.3    97    2.4   331     4.2   99999.0    0.00 
  31   15:20   0.08   31.4    97    2.9   318     4.8   99999.0    0.00 
  31   15:30   0.08   31.7    96    2.7   324     4.8   99999.0    0.00 
  31   15:40   0.09   31.9    96    2.9   317     5.4   99999.0    0.00 
  31   15:50   0.06   31.9    96    1.9   311     4.2   99999.0    0.00 
  31   16:00   0.03   31.6    97    1.5   319     2.4   99999.0    0.00 
  31   16:10   0.02   31.3    97    1.4   296     3.0   99999.0    0.00 
  31   16:20   0.02   31.2    97    1.6   336     4.2   99999.0    0.00 
  31   16:30   0.02   31.0    98    2.1   323     4.2   99999.0    0.00 
  31   16:40   0.02   30.9    98    3.3   327     6.0   99999.0    0.00 
  31   16:50   0.01   31.0    98    3.0   318     7.8   99999.0    0.00 
  31   17:00   0.01   30.9    98    3.2   322     6.6   99999.0    0.00 
  31   17:10   0.01   30.9    98    3.9   319     8.4   99999.0    0.00 
  31   17:20   0.01   30.9    98    2.2   324     7.8   99999.0    0.00 
  31   17:30   0.00   30.9    97    1.0   328    10.8   99999.0    0.00 
  31   17:40   0.00   30.9    96    0.0   338     1.2   99999.0    0.00 
  31   17:50   0.00   30.9    96    0.0     0     0.0   99999.0    0.00 
  31   18:00   0.00   30.8    96    0.0   322     1.2   99999.0    0.00 
  31   18:10   0.00   30.8    95    0.0     0     0.0   99999.0    0.00 
  31   18:20   0.00   30.8    94    0.0     0     0.0   99999.0    0.00 
  31   18:30   100.00  99999.0   99999  99999.0   99999   99999.0   99999.0   99999.00 
  31   18:40   100.00  99999.0   99999  99999.0   99999   99999.0   99999.0   99999.00 
  31   18:50   100.00  99999.0   99999  99999.0   99999   99999.0   99999.0   99999.00 
  31   19:00   100.00  99999.0   99999  99999.0   99999   99999.0   99999.0   99999.00 
  31   19:10   100.00  99999.0   99999  99999.0   99999   99999.0   99999.0   99999.00 
  31   19:20   100.00  99999.0   99999  99999.0   99999   99999.0   99999.0   99999.00 
  31   19:30   0.00   30.1    96    0.0     0     0.0   99999.0    0.00 
  31   19:40   0.00   30.3    95    0.0     0     0.0   99999.0    0.00 
  31   19:50   0.00   30.2    94    0.0     0     0.0   99999.0    0.00 
  31   20:00   0.00   30.2    95    0.0     0     0.0   99999.0    0.00 
  31   20:10   0.00   30.1    95    0.0     0     0.0   99999.0    0.00 
  31   20:20   100.00  99999.0   99999  99999.0   99999   99999.0   99999.0   99999.00 
  31   20:30   0.00   29.5    95    0.0     0     0.0   99999.0    0.00 
  31   20:40   0.00   29.3    95    0.0     0     0.0   99999.0    0.00 
  31   20:50   0.00   29.0    95    0.0     0     0.0   99999.0    0.00 
  31   21:00   0.00   28.6    94    0.0     0     0.0   99999.0    0.00 
  31   21:10   0.00   28.6    96    0.0     0     0.0   99999.0    0.00 
  31   21:20   0.00   28.5    96    0.0     0     0.0   99999.0    0.00 
  31   21:30   0.00   28.0    96    0.0     0     0.0   99999.0    0.00 
  31   21:40   0.00   28.0    96    0.0     0     0.0   99999.0    0.00 
  31   21:50   0.00   27.9    95    0.0     0     0.0   99999.0    0.00 
  31   22:00   0.00   27.3    96    0.0     0     0.0   99999.0    0.00 
  31   22:10   0.00   27.6    97    0.0     0     0.0   99999.0    0.00 
  31   22:20   0.00   27.6    97    0.0     0     0.0   99999.0    0.00 
  31   22:30   0.00   27.0    96    0.0     0     0.0   99999.0    0.00 
  31   22:40   0.00   26.3    97    0.0     0     0.0   99999.0    0.00 
  31   22:50   0.00   26.5    98    0.0     0     0.0   99999.0    0.00 
  31   23:00   0.00   26.0    97    0.0     0     0.0   99999.0    0.00 
  31   23:10   0.00   26.0    98    0.0     0     0.0   99999.0    0.00 
  31   23:20   0.00   26.2    98    0.0     0     0.0   99999.0    0.00 
  31   23:30   0.00   25.9    98    0.0     0     0.0   99999.0    0.00 
  31   23:40   0.00   25.4    97    0.0     0     0.0   99999.0    0.00 
  31   23:50   0.00   25.0    98    0.0     0     0.0   99999.0    0.00 
  32    0:00   0.00   25.5    98    0.0     0     0.0   99999.0    0.00 
  32    0:10   0.00   24.4    96    0.0     0     0.0   99999.0    0.00 
  32    0:20   0.00   23.1    96    0.0     0     0.0   99999.0    0.00 
  32    0:30   0.00   23.6    98    0.0     0     0.0   99999.0    0.00 
  32    0:40   0.00   23.5    98    0.0     0     0.0   99999.0    0.00 
  32    0:50   0.00   22.7    97    0.0     0     0.0   99999.0    0.00 
  32    1:00   0.00   22.6    98    0.0     0     0.0   99999.0    0.00 
  32    1:10   0.00   23.5    98    0.0     0     0.0   99999.0    0.00 
  32    1:20   0.00   23.2    98    0.0     0     0.0   99999.0    0.00 
  32    1:30   0.00   22.8    97    0.0     0     0.0   99999.0    0.00 
  32    1:40   0.00   22.7    97    0.0     0     0.0   99999.0    0.00 
  32    1:50   0.00   22.0    97    0.0     0     0.0   99999.0    0.00 
  32    2:00   0.00   22.1    97    0.0     0     0.0   99999.0    0.00 
  32    2:10   0.00   21.5    96    0.0     0     0.0   99999.0    0.00 
  32    2:20   0.00   20.8    96    0.0     0     0.0   99999.0    0.00 
  32    2:30   0.00   21.7    97    0.0     0     0.0   99999.0    0.00 
  32    2:40   0.00   22.7    95    0.0     0     0.0   99999.0    0.00 
  32    2:50   0.00   23.8    93    0.0     0     0.0   99999.0    0.00 
  32    3:00   0.00   24.2    90    0.0     0     0.0   99999.0    0.00 
  32    3:10   0.00   23.8    90    0.0     0     0.0   99999.0    0.00 
  32    3:20   0.00   23.7    91    0.0     0     0.0   99999.0    0.00 
  32    3:30   0.00   24.2    90    0.0     0     0.0   99999.0    0.00 
  32    3:40   0.00   24.0    91    0.0     0     0.0   99999.0    0.00 
  32    3:50   0.00   22.6    92    0.0     0     0.0   99999.0    0.00 
  32    4:00   0.00   21.4    94    0.0     0     0.0   99999.0    0.00 
  32    4:10   0.00   21.2    95    0.0     0     0.0   99999.0    0.00 
  32    4:20   0.00   21.2    95    0.0     0     0.0   99999.0    0.00 
  32    4:30   0.00   21.7    94    0.0     0     0.0   99999.0    0.00 
  32    4:40   0.00   21.7    92    0.0     0     0.0   99999.0    0.00 
  32    4:50   0.00   21.0    93    0.0     0     0.0   99999.0    0.00 
  32    5:00   0.00   20.8    92    0.0     0     0.0   99999.0    0.00 
  32    5:10   0.00   20.1    93    0.0     0     0.0   99999.0    0.00 
  32    5:20   0.00   19.3    94    0.0     0     0.0   99999.0    0.00 

Return to Conejos, Valles Caldera graphs page.


Western Regional Climate Center,wrcc@dri.edu